Time;durP1;ratioP1;P1;durP2;ratioP2;P2;SDS_P1;SDS_P2;PMS_P1;PMS_P2;Temp;Humidity;BMP_temperature;BMP_pressure;BME280_temperature;BME280_humidity;BME280_pressure;Samples;Min_cycle;Max_cycle;Signal;HPM_P1;HPM_P2
2023/02/02 00:01:28;;;;;;;6.47;3.22;;;5.60;99.90;;;;;;5050604;28;20048;-70
2023/02/02 00:03:55;;;;;;;14.02;4.18;;;5.70;99.90;;;;;;5050169;28;20048;-66
2023/02/02 00:06:25;;;;;;;11.32;3.58;;;5.70;99.90;;;;;;5041013;28;20404;-66
2023/02/02 00:08:52;;;;;;;13.05;3.08;;;5.70;99.90;;;;;;5032899;28;20042;-69
2023/02/02 00:11:19;;;;;;;13.43;3.85;;;5.70;99.90;;;;;;5030800;28;20155;-74
2023/02/02 00:13:47;;;;;;;15.35;3.20;;;5.70;99.90;;;;;;5033015;28;20053;-69
2023/02/02 00:16:29;;;;;;;9.77;3.35;;;5.60;99.90;;;;;;5032783;28;20455;-68
2023/02/02 00:19:01;;;;;;;;;;;5.60;99.90;;;;;;5049687;28;20539;-68
2023/02/02 00:21:28;;;;;;;12.25;4.00;;;5.50;99.90;;;;;;5045952;28;19932;-67
2023/02/02 00:23:55;;;;;;;12.27;2.92;;;5.50;99.90;;;;;;5047795;28;20132;-69
2023/02/02 00:26:23;;;;;;;13.93;4.30;;;5.60;99.90;;;;;;5041612;28;20139;-69
2023/02/02 00:28:51;;;;;;;11.00;4.10;;;5.60;99.90;;;;;;5050536;28;20041;-68
2023/02/02 00:31:18;;;;;;;12.70;3.60;;;5.60;99.90;;;;;;5049297;28;20045;-67
2023/02/02 00:33:47;;;;;;;16.23;3.83;;;5.60;99.90;;;;;;5067978;28;20049;-65
2023/02/02 00:36:15;;;;;;;13.15;4.18;;;5.60;99.90;;;;;;5049633;28;20485;-68
2023/02/02 00:38:43;;;;;;;9.07;3.38;;;5.60;99.90;;;;;;5049483;28;20048;-68
2023/02/02 00:41:10;;;;;;;19.00;4.10;;;5.60;99.90;;;;;;5051685;28;20041;-67
2023/02/02 00:43:38;;;;;;;12.48;3.40;;;5.60;99.90;;;;;;5050898;28;20384;-67
2023/02/02 00:46:05;;;;;;;11.52;3.80;;;5.50;99.90;;;;;;5052256;28;20098;-69
2023/02/02 00:48:32;;;;;;;10.70;3.85;;;5.50;99.90;;;;;;5048906;28;20152;-65
2023/02/02 00:51:01;;;;;;;13.38;3.83;;;5.40;99.90;;;;;;5036991;28;20103;-66
2023/02/02 00:53:28;;;;;;;8.43;3.25;;;5.40;99.90;;;;;;5045764;28;20479;-68
2023/02/02 00:55:55;;;;;;;15.75;4.10;;;5.40;99.90;;;;;;5062295;28;20053;-68
2023/02/02 00:58:23;;;;;;;17.92;4.32;;;5.40;99.90;;;;;;5029993;28;20463;-69
2023/02/02 01:00:51;;;;;;;12.70;4.18;;;5.30;99.90;;;;;;5048004;28;20136;-67
2023/02/02 01:03:18;;;;;;;9.63;3.33;;;5.20;99.90;;;;;;5050455;28;20397;-68
2023/02/02 01:05:45;;;;;;;9.88;3.72;;;5.20;99.90;;;;;;5045065;28;20447;-67
2023/02/02 01:08:13;;;;;;;19.60;5.30;;;5.20;99.90;;;;;;5046083;28;20067;-69
2023/02/02 01:10:40;;;;;;;14.18;3.70;;;5.10;99.90;;;;;;5039013;28;20470;-67
2023/02/02 01:13:09;;;;;;;6.30;2.33;;;5.10;99.90;;;;;;5025042;28;20057;-67
2023/02/02 01:15:37;;;;;;;3.67;1.90;;;4.90;99.90;;;;;;5029622;28;20083;-67
2023/02/02 01:18:07;;;;;;;4.28;1.70;;;4.50;99.90;;;;;;5013942;28;20400;-66
2023/02/02 01:20:34;;;;;;;2.38;1.45;;;4.10;99.90;;;;;;5016759;28;20055;-67
2023/02/02 01:23:01;;;;;;;2.33;1.35;;;3.80;99.90;;;;;;5048705;28;20111;-67
2023/02/02 01:25:31;;;;;;;2.55;1.33;;;3.50;99.90;;;;;;5048586;28;20045;-66
2023/02/02 01:27:58;;;;;;;2.30;1.35;;;3.30;99.90;;;;;;5034671;28;20123;-66
2023/02/02 01:30:27;;;;;;;2.45;1.00;;;3.20;99.90;;;;;;5049558;28;20140;-66
2023/02/02 01:32:54;;;;;;;4.13;1.13;;;3.00;99.90;;;;;;5028573;28;20050;-67
2023/02/02 01:35:21;;;;;;;2.30;1.05;;;2.90;99.90;;;;;;5035996;28;20049;-67
2023/02/02 01:37:50;;;;;;;2.22;1.10;;;2.90;99.90;;;;;;5051302;28;20064;-66
2023/02/02 01:40:17;;;;;;;4.55;1.30;;;2.90;99.90;;;;;;5048844;28;20048;-66
2023/02/02 01:42:44;;;;;;;1.77;1.00;;;2.80;99.90;;;;;;5050399;28;20061;-67
2023/02/02 01:45:28;;;;;;;2.42;0.93;;;2.50;99.90;;;;;;5051388;28;20048;-67
2023/02/02 01:47:58;;;;;;;2.22;0.90;;;2.50;99.90;;;;;;5046261;28;20419;-69
2023/02/02 01:50:29;;;;;;;1.33;0.82;;;2.50;99.90;;;;;;5061498;28;20442;-67
2023/02/02 01:52:59;;;;;;;1.58;0.98;;;2.40;99.90;;;;;;5033844;28;20527;-66
2023/02/02 01:55:29;;;;;;;1.23;0.95;;;2.40;99.90;;;;;;5049233;28;20049;-68
2023/02/02 01:57:58;;;;;;;1.20;0.80;;;2.20;99.90;;;;;;5046427;28;20041;-68
2023/02/02 02:00:26;;;;;;;1.75;0.88;;;2.10;99.90;;;;;;5031265;28;20029;-67
2023/02/02 02:03:02;;;;;;;1.20;0.95;;;1.90;99.90;;;;;;5013392;28;20042;-68
2023/02/02 02:05:37;;;;;;;1.05;0.93;;;2.00;99.90;;;;;;5030273;28;20385;-68
2023/02/02 02:08:20;;;;;;;1.27;0.98;;;1.90;99.90;;;;;;5033052;28;20094;-67
2023/02/02 02:10:48;;;;;;;1.08;0.85;;;1.80;99.90;;;;;;5048937;28;20570;-66
2023/02/02 02:13:16;;;;;;;1.23;0.80;;;1.80;99.90;;;;;;5033126;28;20423;-67
2023/02/02 02:16:19;;;;;;;3.03;0.90;;;1.80;99.90;;;;;;5049542;28;20044;-66
2023/02/02 02:19:06;;;;;;;0.98;0.80;;;1.80;99.90;;;;;;5033852;28;20065;-68
2023/02/02 02:27:43;;;;;;;1.30;0.77;;;1.70;99.90;;;;;;5066030;28;20045;-67
2023/02/02 02:30:29;;;;;;;1.00;0.80;;;1.60;99.90;;;;;;5031922;28;20466;-69
2023/02/02 02:33:03;;;;;;;1.40;0.80;;;1.60;99.90;;;;;;5023947;28;20049;-68
2023/02/02 02:36:01;;;;;;;1.38;0.90;;;1.60;99.90;;;;;;5085420;28;20047;-68
2023/02/02 02:39:03;;;;;;;1.08;0.98;;;1.60;99.90;;;;;;5035730;28;20052;-68
2023/02/02 02:41:35;;;;;;;2.58;0.90;;;1.60;99.90;;;;;;5031226;28;20472;-70
2023/02/02 02:44:07;;;;;;;;;;;1.50;99.90;;;;;;5049242;28;20049;-68
2023/02/02 02:46:36;;;;;;;2.20;1.00;;;1.40;99.90;;;;;;5065154;28;20370;-68
2023/02/02 02:49:08;;;;;;;1.23;0.90;;;1.50;99.90;;;;;;5052700;28;20041;-69
2023/02/02 02:51:50;;;;;;;1.33;0.80;;;1.50;99.90;;;;;;5046371;28;20095;-70
2023/02/02 02:54:33;;;;;;;0.77;0.70;;;1.50;99.90;;;;;;5021154;28;20123;-70
2023/02/02 02:57:07;;;;;;;1.55;0.90;;;1.50;99.90;;;;;;5021846;28;20444;-69
2023/02/02 02:59:57;;;;;;;1.10;0.90;;;1.40;99.90;;;;;;5036398;28;20041;-69
2023/02/02 03:02:43;;;;;;;1.27;0.90;;;1.40;99.90;;;;;;5012505;28;20080;-69
2023/02/02 03:05:32;;;;;;;1.75;0.88;;;1.40;99.90;;;;;;5036045;28;20037;-70
2023/02/02 03:08:10;;;;;;;1.38;0.85;;;1.40;99.90;;;;;;5033146;28;20042;-70
2023/02/02 03:10:41;;;;;;;1.15;0.80;;;1.40;99.90;;;;;;5033833;28;20057;-70
2023/02/02 03:13:10;;;;;;;1.75;0.90;;;1.40;99.90;;;;;;5033531;28;20038;-69
2023/02/02 03:15:42;;;;;;;1.30;0.90;;;1.40;99.90;;;;;;5049449;28;20124;-69
2023/02/02 03:18:15;;;;;;;1.90;0.85;;;1.40;99.90;;;;;;5048503;28;20044;-69
2023/02/02 03:20:44;;;;;;;1.80;0.88;;;1.50;99.90;;;;;;5033791;28;20377;-69
2023/02/02 03:23:12;;;;;;;0.77;0.63;;;1.40;99.90;;;;;;5031283;28;20499;-69
2023/02/02 03:25:40;;;;;;;1.00;0.80;;;1.40;99.90;;;;;;5033867;28;20488;-69
2023/02/02 03:28:08;;;;;;;1.48;0.90;;;1.40;99.90;;;;;;5033317;28;20041;-68
2023/02/02 03:30:37;;;;;;;2.67;0.80;;;1.50;99.90;;;;;;5033112;28;20077;-69
2023/02/02 03:33:05;;;;;;;0.68;0.68;;;1.50;99.90;;;;;;5051067;28;20386;-69
2023/02/02 03:35:33;;;;;;;1.40;0.80;;;1.50;99.90;;;;;;5040950;28;20065;-69
2023/02/02 03:38:00;;;;;;;1.02;0.80;;;1.50;99.90;;;;;;5052560;28;20125;-68
2023/02/02 03:40:28;;;;;;;1.02;0.80;;;1.50;99.90;;;;;;5031825;28;20443;-68
2023/02/02 03:42:56;;;;;;;2.05;0.90;;;1.50;99.90;;;;;;5034503;28;20045;-69
2023/02/02 03:45:27;;;;;;;1.25;0.80;;;1.50;99.90;;;;;;5055808;28;20057;-68
2023/02/02 03:47:54;;;;;;;1.30;0.97;;;1.50;99.90;;;;;;5053238;28;20516;-68
2023/02/02 03:50:21;;;;;;;2.10;0.80;;;1.50;99.90;;;;;;5067030;28;20051;-69
2023/02/02 03:52:48;;;;;;;1.85;0.82;;;1.60;99.90;;;;;;5051347;28;20491;-68
2023/02/02 03:55:16;;;;;;;1.20;0.80;;;1.60;99.90;;;;;;5034813;28;20057;-69
2023/02/02 03:57:43;;;;;;;1.02;0.80;;;1.70;99.90;;;;;;5051518;28;20533;-68
2023/02/02 04:00:11;;;;;;;1.20;0.73;;;1.70;99.90;;;;;;5050096;28;20521;-69
2023/02/02 04:02:38;;;;;;;2.53;1.00;;;1.70;99.90;;;;;;5038197;28;20046;-69
2023/02/02 04:05:05;;;;;;;2.47;1.10;;;1.80;99.90;;;;;;5032784;28;20045;-68
2023/02/02 04:07:33;;;;;;;1.92;1.13;;;1.80;99.90;;;;;;5031380;28;20132;-70
2023/02/02 04:10:00;;;;;;;1.20;0.90;;;1.80;99.90;;;;;;5030312;28;20140;-69
2023/02/02 04:12:27;;;;;;;1.55;1.00;;;1.80;99.90;;;;;;5035094;28;20049;-69
2023/02/02 04:14:55;;;;;;;0.80;0.80;;;1.80;99.90;;;;;;5051329;28;20082;-69
2023/02/02 04:17:22;;;;;;;1.75;0.90;;;1.80;99.90;;;;;;5048546;28;20052;-70
2023/02/02 04:19:52;;;;;;;1.38;1.00;;;1.80;99.90;;;;;;5031078;28;20067;-69
2023/02/02 04:22:19;;;;;;;1.73;0.90;;;1.80;99.90;;;;;;5046119;28;20041;-70
2023/02/02 04:24:47;;;;;;;1.27;0.88;;;1.90;99.90;;;;;;5031306;28;20116;-69
2023/02/02 04:27:14;;;;;;;2.33;1.20;;;1.90;99.90;;;;;;5047426;28;20471;-70
2023/02/02 04:29:41;;;;;;;1.08;0.88;;;1.90;99.90;;;;;;5047385;28;20064;-69
2023/02/02 04:32:08;;;;;;;1.60;1.02;;;2.00;99.90;;;;;;5034843;28;20041;-69
2023/02/02 04:34:36;;;;;;;2.08;0.90;;;2.00;99.90;;;;;;5066755;28;20045;-69
2023/02/02 04:37:03;;;;;;;2.30;1.20;;;2.00;99.90;;;;;;5047863;28;20476;-68
2023/02/02 04:39:30;;;;;;;2.08;1.10;;;2.00;99.90;;;;;;5013506;28;20049;-68
2023/02/02 04:41:57;;;;;;;3.38;1.13;;;2.00;99.90;;;;;;5047089;28;20111;-68
2023/02/02 04:44:25;;;;;;;3.70;1.70;;;2.00;99.90;;;;;;5046597;28;20064;-69
2023/02/02 04:46:52;;;;;;;5.00;1.80;;;2.10;99.90;;;;;;5034158;28;20042;-68
2023/02/02 04:49:20;;;;;;;4.93;1.98;;;2.10;99.90;;;;;;5038707;28;20041;-68
2023/02/02 04:51:49;;;;;;;3.85;1.75;;;2.10;99.90;;;;;;5048582;28;20064;-68
2023/02/02 04:54:17;;;;;;;4.85;2.15;;;2.20;99.90;;;;;;5049517;28;20077;-68
2023/02/02 04:56:44;;;;;;;3.63;2.10;;;2.20;99.90;;;;;;5041561;28;20050;-69
2023/02/02 04:59:11;;;;;;;4.65;2.17;;;2.10;99.90;;;;;;5028790;28;20503;-69
2023/02/02 05:01:39;;;;;;;3.40;1.90;;;2.00;99.90;;;;;;5028989;28;20495;-70
2023/02/02 05:04:06;;;;;;;3.88;2.10;;;2.00;99.90;;;;;;5030442;28;20065;-68
2023/02/02 05:06:33;;;;;;;3.60;2.20;;;2.00;99.90;;;;;;5045440;28;20045;-69
2023/02/02 05:09:01;;;;;;;4.25;2.00;;;2.00;99.90;;;;;;5032038;28;20068;-69
2023/02/02 05:11:29;;;;;;;4.93;2.40;;;2.00;99.90;;;;;;5028946;28;20038;-69
2023/02/02 05:13:56;;;;;;;5.10;1.75;;;1.90;99.90;;;;;;5030675;28;20057;-69
2023/02/02 05:16:24;;;;;;;3.47;1.75;;;1.90;99.90;;;;;;5046308;28;20041;-70
2023/02/02 05:18:56;;;;;;;4.10;1.92;;;1.90;99.90;;;;;;4997265;28;20049;-69
2023/02/02 05:21:24;;;;;;;3.88;1.83;;;1.90;99.90;;;;;;5039691;28;20045;-70
2023/02/02 05:23:51;;;;;;;6.53;2.45;;;1.90;99.90;;;;;;5030342;28;20129;-70
2023/02/02 05:26:21;;;;;;;6.53;2.95;;;1.90;99.90;;;;;;5030254;28;20480;-69
2023/02/02 05:28:48;;;;;;;8.02;2.90;;;1.90;99.90;;;;;;5036635;28;20402;-70
2023/02/02 05:31:16;;;;;;;5.28;2.50;;;2.00;99.90;;;;;;5050717;28;20052;-72
2023/02/02 05:33:44;;;;;;;5.07;2.60;;;2.00;99.90;;;;;;5031144;28;20500;-70
2023/02/02 05:36:11;;;;;;;4.88;2.17;;;2.00;99.90;;;;;;5045785;28;20045;-70
2023/02/02 05:38:38;;;;;;;4.63;2.58;;;2.00;99.90;;;;;;5045090;28;20515;-70
2023/02/02 05:41:06;;;;;;;5.22;2.63;;;2.00;99.90;;;;;;5040233;28;20051;-70
2023/02/02 05:43:33;;;;;;;3.90;1.90;;;2.10;99.90;;;;;;5048253;28;20039;-71
2023/02/02 05:46:01;;;;;;;4.35;2.08;;;2.10;99.90;;;;;;5049736;28;20095;-69
2023/02/02 05:48:28;;;;;;;6.47;2.78;;;2.10;99.90;;;;;;5045060;28;20500;-70
2023/02/02 05:51:11;;;;;;;4.72;2.40;;;2.10;99.90;;;;;;5028876;28;20071;-71
2023/02/02 05:53:38;;;;;;;5.82;2.50;;;2.10;99.90;;;;;;5044858;28;20045;-70
2023/02/02 05:56:06;;;;;;;3.78;2.00;;;2.10;99.90;;;;;;5044171;28;20038;-70
2023/02/02 05:58:33;;;;;;;4.85;2.20;;;2.10;99.90;;;;;;5029461;28;20141;-70
2023/02/02 06:01:00;;;;;;;3.58;1.73;;;2.10;99.90;;;;;;5044030;28;20148;-69
2023/02/02 06:03:28;;;;;;;4.05;2.00;;;2.00;99.90;;;;;;5043933;28;20040;-71
2023/02/02 06:05:55;;;;;;;3.53;1.52;;;2.10;99.90;;;;;;5051997;28;20400;-70
2023/02/02 06:08:22;;;;;;;4.30;1.58;;;2.10;99.90;;;;;;5070450;28;20047;-69
2023/02/02 06:10:50;;;;;;;2.33;1.30;;;2.10;99.90;;;;;;5046378;28;20098;-69
2023/02/02 06:13:18;;;;;;;2.90;1.50;;;2.10;99.90;;;;;;5054314;28;20039;-69
2023/02/02 06:15:45;;;;;;;5.28;2.30;;;2.00;99.90;;;;;;5028384;28;20471;-69
2023/02/02 06:18:12;;;;;;;4.55;2.20;;;2.00;99.90;;;;;;5061558;28;20070;-69
2023/02/02 06:20:39;;;;;;;6.05;2.35;;;2.00;99.90;;;;;;5053948;28;20057;-68
2023/02/02 06:23:07;;;;;;;4.07;2.22;;;2.00;99.90;;;;;;5074946;28;20045;-69
2023/02/02 06:25:34;;;;;;;3.85;1.88;;;2.00;99.90;;;;;;5050897;28;20091;-69
2023/02/02 06:28:01;;;;;;;4.82;2.00;;;2.00;99.90;;;;;;5062740;28;20403;-69
2023/02/02 06:30:29;;;;;;;4.35;1.88;;;2.00;99.90;;;;;;5068204;28;20058;-71
2023/02/02 06:32:58;;;;;;;6.28;1.95;;;2.00;99.90;;;;;;5056412;28;20494;-68
2023/02/02 06:35:26;;;;;;;4.28;1.80;;;1.90;99.90;;;;;;5069560;28;20562;-69
2023/02/02 06:37:53;;;;;;;5.63;2.10;;;2.00;99.90;;;;;;5072613;28;20041;-67
2023/02/02 06:40:20;;;;;;;3.75;2.00;;;2.00;99.90;;;;;;5058441;28;20140;-66
2023/02/02 06:42:54;;;;;;;4.82;1.98;;;2.10;99.90;;;;;;5047707;28;20053;-66
2023/02/02 06:45:21;;;;;;;4.70;1.88;;;2.10;99.90;;;;;;5064788;28;20037;-66
2023/02/02 06:47:48;;;;;;;4.60;2.00;;;2.10;99.90;;;;;;5068751;28;20504;-66
2023/02/02 06:50:16;;;;;;;4.20;2.08;;;2.10;99.90;;;;;;5074669;28;20038;-65
2023/02/02 06:52:48;;;;;;;7.35;2.42;;;2.20;99.90;;;;;;5068660;28;20131;-67
2023/02/02 06:55:16;;;;;;;5.00;2.05;;;2.20;99.90;;;;;;5035708;28;20040;-66
2023/02/02 06:57:43;;;;;;;6.38;3.45;;;2.20;99.90;;;;;;5067316;28;20040;-67
2023/02/02 07:00:11;;;;;;;4.85;2.65;;;2.20;99.90;;;;;;5060194;28;20457;-66
2023/02/02 07:02:39;;;;;;;5.38;2.85;;;2.20;99.90;;;;;;5030864;28;20570;-66
2023/02/02 07:05:06;;;;;;;4.47;2.40;;;2.20;99.90;;;;;;5060524;28;20131;-67
2023/02/02 07:07:34;;;;;;;5.43;2.50;;;2.20;99.90;;;;;;5058600;28;20067;-66
2023/02/02 07:10:01;;;;;;;5.20;2.50;;;2.20;99.90;;;;;;5061429;28;20483;-66
2023/02/02 07:12:28;;;;;;;5.65;2.90;;;2.20;99.90;;;;;;5063556;28;20048;-68
2023/02/02 07:14:58;;;;;;;4.18;2.45;;;2.20;99.90;;;;;;5058700;28;20072;-68
2023/02/02 07:17:25;;;;;;;5.13;2.60;;;2.20;99.90;;;;;;5059551;28;20838;-68
2023/02/02 07:19:52;;;;;;;4.55;2.08;;;2.20;99.90;;;;;;5059961;28;20040;-69
2023/02/02 07:22:19;;;;;;;5.00;2.60;;;2.30;99.90;;;;;;5084331;28;20052;-68
2023/02/02 07:24:47;;;;;;;5.38;2.80;;;2.30;99.90;;;;;;5060356;28;20049;-67
2023/02/02 07:27:14;;;;;;;6.15;2.70;;;2.30;99.90;;;;;;5070203;28;20511;-66
2023/02/02 07:29:41;;;;;;;8.95;2.90;;;2.40;99.90;;;;;;5066258;28;20060;-67
2023/02/02 07:32:09;;;;;;;10.15;4.90;;;2.30;99.90;;;;;;5052539;28;20475;-66
2023/02/02 07:34:38;;;;;;;18.95;8.10;;;2.30;99.90;;;;;;5061398;28;20048;-67
2023/02/02 07:37:05;;;;;;;8.98;3.63;;;2.30;99.90;;;;;;5049515;28;20037;-66
2023/02/02 07:39:33;;;;;;;5.30;3.17;;;2.30;99.90;;;;;;5054101;28;20330;-67
2023/02/02 07:42:00;;;;;;;7.55;3.10;;;2.40;99.90;;;;;;5057636;28;20042;-66
2023/02/02 07:44:34;;;;;;;6.63;2.97;;;2.40;99.90;;;;;;5070866;28;20064;-67
2023/02/02 07:47:01;;;;;;;8.07;3.25;;;2.50;99.90;;;;;;5062636;28;20041;-67
2023/02/02 07:49:28;;;;;;;5.07;2.70;;;2.50;99.90;;;;;;5055148;28;20522;-68
2023/02/02 07:51:56;;;;;;;5.43;2.60;;;2.50;99.90;;;;;;5064778;28;20126;-68
2023/02/02 07:54:24;;;;;;;4.45;2.08;;;2.50;99.90;;;;;;5068883;28;20436;-67
2023/02/02 07:56:51;;;;;;;5.63;2.67;;;2.60;99.90;;;;;;5053562;28;20130;-67
2023/02/02 07:59:18;;;;;;;5.10;2.42;;;2.70;99.90;;;;;;5038356;28;20045;-67
2023/02/02 08:01:45;;;;;;;3.95;2.03;;;2.70;99.90;;;;;;5032114;28;20492;-69
2023/02/02 08:04:13;;;;;;;4.18;2.10;;;2.70;99.90;;;;;;5031005;28;20060;-68
2023/02/02 08:06:40;;;;;;;4.80;2.30;;;2.70;99.90;;;;;;5028581;28;20038;-68
2023/02/02 08:09:08;;;;;;;4.70;2.50;;;2.80;99.90;;;;;;5042504;28;20040;-67
2023/02/02 08:11:37;;;;;;;6.75;2.75;;;2.80;99.90;;;;;;5049328;28;20742;-67
2023/02/02 08:14:05;;;;;;;4.78;2.40;;;2.70;99.90;;;;;;5038767;28;20041;-67
2023/02/02 08:16:33;;;;;;;6.15;3.15;;;2.70;99.90;;;;;;5032013;28;20050;-67
2023/02/02 08:19:00;;;;;;;5.57;2.33;;;2.70;99.90;;;;;;5033910;28;20474;-69
2023/02/02 08:21:27;;;;;;;4.82;1.90;;;2.80;99.90;;;;;;5030904;28;20403;-69
2023/02/02 08:23:55;;;;;;;5.35;2.97;;;2.60;99.90;;;;;;5049370;28;20490;-69
2023/02/02 08:26:27;;;;;;;4.82;2.40;;;2.60;99.90;;;;;;5050286;28;20397;-69
2023/02/02 08:29:01;;;;;;;7.47;3.00;;;2.60;99.90;;;;;;5066224;28;20041;-69
2023/02/02 08:31:41;;;;;;;9.70;3.38;;;2.50;99.90;;;;;;5051177;28;20041;-69
2023/02/02 08:34:11;;;;;;;5.88;2.80;;;2.50;99.90;;;;;;5051541;28;20079;-67
2023/02/02 08:36:38;;;;;;;6.65;2.90;;;2.40;99.90;;;;;;5036866;28;20460;-68
2023/02/02 08:39:09;;;;;;;7.63;3.25;;;2.40;99.90;;;;;;5030396;28;20500;-68
2023/02/02 08:41:37;;;;;;;5.97;3.00;;;2.40;99.90;;;;;;5030225;28;20042;-69
2023/02/02 08:44:10;;;;;;;6.85;3.10;;;2.40;99.90;;;;;;5046028;28;20046;-66
2023/02/02 08:46:38;;;;;;;6.43;2.88;;;2.40;99.90;;;;;;5037490;28;20454;-68
2023/02/02 08:49:05;;;;;;;7.07;2.72;;;2.40;99.90;;;;;;5048174;28;20065;-67
2023/02/02 08:51:33;;;;;;;6.07;2.58;;;2.40;99.90;;;;;;5043718;28;20060;-69
2023/02/02 08:54:00;;;;;;;4.75;2.55;;;2.40;99.90;;;;;;5029757;28;20041;-69
2023/02/02 08:56:28;;;;;;;8.43;3.35;;;2.50;99.90;;;;;;5040641;28;20475;-68
2023/02/02 08:59:03;;;;;;;7.93;4.13;;;2.40;99.90;;;;;;5050564;28;20045;-66
2023/02/02 09:01:32;;;;;;;8.35;3.85;;;2.50;99.90;;;;;;5050678;28;20044;-67
2023/02/02 09:04:03;;;;;;;5.65;3.42;;;2.50;99.90;;;;;;5050891;28;20053;-67
2023/02/02 09:06:33;;;;;;;8.57;4.47;;;2.50;99.90;;;;;;5048342;28;20545;-66
2023/02/02 09:09:02;;;;;;;8.88;4.35;;;2.60;99.90;;;;;;5031115;28;20481;-68
2023/02/02 09:11:30;;;;;;;8.38;4.30;;;2.50;99.90;;;;;;5044054;28;20488;-67
2023/02/02 09:13:59;;;;;;;9.13;4.45;;;2.60;99.90;;;;;;5048157;28;20057;-67
2023/02/02 09:16:27;;;;;;;8.45;4.45;;;2.60;99.90;;;;;;5049283;28;20273;-67
2023/02/02 09:18:55;;;;;;;8.18;4.03;;;2.60;99.90;;;;;;5031388;28;20392;-67
2023/02/02 09:21:23;;;;;;;7.32;3.90;;;2.60;99.90;;;;;;5029535;28;20045;-67
2023/02/02 09:23:52;;;;;;;5.03;3.05;;;2.60;99.90;;;;;;5036576;28;20574;-67
2023/02/02 09:26:28;;;;;;;7.53;3.60;;;2.70;99.90;;;;;;5046895;28;20045;-68
2023/02/02 09:28:58;;;;;;;5.20;2.70;;;2.70;99.90;;;;;;5042869;28;20036;-68
2023/02/02 09:31:26;;;;;;;4.47;2.53;;;2.70;99.90;;;;;;5044522;28;20355;-68
2023/02/02 09:33:54;;;;;;;9.93;4.05;;;2.70;99.90;;;;;;5047709;28;20037;-69
2023/02/02 09:36:23;;;;;;;7.47;3.45;;;2.80;99.90;;;;;;5048925;28;20055;-67
2023/02/02 09:38:51;;;;;;;5.15;2.97;;;2.80;99.90;;;;;;5055541;28;20147;-68
2023/02/02 09:41:36;;;;;;;9.15;3.50;;;2.80;99.90;;;;;;5049262;28;20038;-69
2023/02/02 09:44:10;;;;;;;8.70;3.80;;;2.80;99.90;;;;;;5033720;28;20037;-67
2023/02/02 09:46:44;;;;;;;7.32;3.78;;;2.80;99.90;;;;;;5029266;28;20146;-68
2023/02/02 09:49:20;;;;;;;12.40;5.00;;;2.80;99.90;;;;;;5048424;28;20515;-68
2023/02/02 09:51:55;;;;;;;11.20;5.25;;;2.90;99.90;;;;;;5038195;28;20412;-68
2023/02/02 09:54:32;;;;;;;8.23;3.70;;;2.90;99.90;;;;;;5047604;28;20407;-67
2023/02/02 09:57:04;;;;;;;7.78;3.20;;;2.90;99.90;;;;;;5040043;28;20423;-67
2023/02/02 09:59:38;;;;;;;5.72;2.80;;;3.00;99.90;;;;;;5040746;28;20413;-69
2023/02/02 10:02:30;;;;;;;6.25;3.03;;;3.00;99.90;;;;;;5048264;28;20487;-69
2023/02/02 10:05:12;;;;;;;5.55;2.67;;;3.00;99.90;;;;;;5039468;28;20064;-68
2023/02/02 10:07:45;;;;;;;5.18;2.55;;;3.10;99.90;;;;;;5027942;28;20480;-68
2023/02/02 10:10:34;;;;;;;6.88;3.00;;;3.00;99.90;;;;;;5029249;28;20050;-68
2023/02/02 10:13:16;;;;;;;12.35;4.82;;;3.10;99.90;;;;;;5028206;28;20095;-68
2023/02/02 10:16:05;;;;;;;9.52;3.92;;;3.20;99.90;;;;;;5047586;28;20056;-68
2023/02/02 10:18:50;;;;;;;9.27;4.00;;;3.20;99.90;;;;;;5042974;28;20148;-65
2023/02/02 10:21:39;;;;;;;9.38;4.82;;;3.30;99.90;;;;;;5039930;28;20033;-67
2023/02/02 10:24:19;;;;;;;11.70;4.20;;;3.50;99.90;;;;;;5042067;28;20041;-66
2023/02/02 10:27:04;;;;;;;12.27;4.28;;;3.50;99.90;;;;;;5034783;28;20044;-67
2023/02/02 10:29:41;;;;;;;7.70;4.13;;;3.70;99.90;;;;;;5027796;28;20120;-66
2023/02/02 10:32:57;;;;;;;8.38;4.13;;;3.80;99.90;;;;;;5045000;28;20103;-67
2023/02/02 10:35:40;;;;;;;8.32;4.18;;;3.90;99.90;;;;;;5026772;28;20045;-66
2023/02/02 10:38:22;;;;;;;8.90;4.28;;;3.90;99.90;;;;;;5046062;28;20045;-67
2023/02/02 10:41:18;;;;;;;10.23;4.93;;;4.00;99.90;;;;;;5048274;28;20045;-67
2023/02/02 10:43:56;;;;;;;8.32;4.50;;;4.10;99.90;;;;;;5038971;28;20057;-67
2023/02/02 10:46:41;;;;;;;10.77;4.10;;;4.30;99.90;;;;;;5028746;28;20419;-66
2023/02/02 10:49:11;;;;;;;13.07;4.80;;;4.30;99.90;;;;;;5047780;28;20079;-67
2023/02/02 10:51:40;;;;;;;15.23;5.38;;;4.70;99.90;;;;;;5045979;28;20049;-68
2023/02/02 10:54:28;;;;;;;16.52;4.38;;;4.90;99.90;;;;;;5027910;28;20037;-68
2023/02/02 10:56:59;;;;;;;10.23;4.35;;;5.20;99.90;;;;;;5047462;28;20061;-67
2023/02/02 10:59:31;;;;;;;20.25;4.57;;;5.40;99.90;;;;;;5032167;28;20045;-68
2023/02/02 11:01:59;;;;;;;;;;;5.50;99.90;;;;;;5045105;28;20076;-68
2023/02/02 11:07:30;;;;;;;10.00;3.78;;;5.80;99.90;;;;;;5027424;28;20491;-68
2023/02/02 11:09:57;;;;;;;10.00;3.63;;;5.90;99.90;;;;;;5030645;28;20041;-69
2023/02/02 11:12:34;;;;;;;12.50;4.20;;;6.00;99.90;;;;;;5032792;28;20507;-67
2023/02/02 11:15:08;;;;;;;12.02;4.07;;;6.00;99.90;;;;;;5032244;28;20041;-68
2023/02/02 11:17:35;;;;;;;8.45;3.38;;;6.10;99.90;;;;;;5036268;28;20056;-65
2023/02/02 11:20:38;;;;;;;9.23;3.55;;;6.00;99.90;;;;;;5053197;28;20041;-73
2023/02/02 11:23:17;;;;;;;8.60;3.40;;;6.10;99.90;;;;;;5047922;28;20120;-69
2023/02/02 11:25:59;;;;;;;13.63;4.63;;;6.10;99.90;;;;;;5044399;28;20488;-68
2023/02/02 11:28:34;;;;;;;10.07;3.38;;;6.10;99.90;;;;;;5046180;28;20040;-68
2023/02/02 11:31:02;;;;;;;14.75;4.00;;;6.10;99.90;;;;;;5034121;28;20127;-67
2023/02/02 11:33:35;;;;;;;11.27;3.83;;;6.10;99.90;;;;;;5041508;28;20408;-69
2023/02/02 11:36:05;;;;;;;10.60;4.03;;;6.10;99.90;;;;;;5032013;28;20041;-68
2023/02/02 11:38:32;;;;;;;12.50;3.85;;;6.20;99.90;;;;;;5031154;28;20497;-68
2023/02/02 11:41:04;;;;;;;13.90;4.40;;;6.30;99.90;;;;;;5039019;28;20094;-68
2023/02/02 11:43:47;;;;;;;16.55;4.43;;;6.30;99.90;;;;;;5049473;28;20041;-69
2023/02/02 11:46:23;;;;;;;11.75;4.10;;;6.30;99.90;;;;;;5032581;28;20483;-68
2023/02/02 11:49:00;;;;;;;10.25;3.58;;;6.30;99.90;;;;;;5046159;28;20107;-67
2023/02/02 11:51:29;;;;;;;11.18;3.83;;;6.30;99.90;;;;;;5050552;28;20048;-71
2023/02/02 11:54:28;;;;;;;8.57;2.88;;;6.30;99.90;;;;;;5049050;28;20384;-68
2023/02/02 11:56:58;;;;;;;10.23;3.97;;;6.30;99.90;;;;;;5031336;28;20057;-67
2023/02/02 11:59:46;;;;;;;10.43;3.72;;;6.30;99.90;;;;;;5054995;28;20096;-67
2023/02/02 12:02:27;;;;;;;13.93;4.15;;;6.20;99.90;;;;;;5036481;28;20041;-68
2023/02/02 12:05:20;;;;;;;12.52;3.92;;;6.30;99.90;;;;;;5052001;28;20041;-67
2023/02/02 12:07:48;;;;;;;21.98;4.43;;;6.30;99.90;;;;;;5041744;28;20049;-67
2023/02/02 12:10:27;;;;;;;17.55;3.38;;;6.30;99.90;;;;;;5032029;28;20041;-68
2023/02/02 12:13:10;;;;;;;13.48;3.92;;;6.40;99.90;;;;;;5037320;28;20053;-67
2023/02/02 12:15:44;;;;;;;10.48;3.30;;;6.30;99.90;;;;;;5042019;28;20565;-67
2023/02/02 12:18:20;;;;;;;12.00;3.55;;;6.30;99.90;;;;;;5033494;28;20530;-69
2023/02/02 12:20:59;;;;;;;10.15;3.80;;;6.30;99.90;;;;;;5046210;28;20044;-69
2023/02/02 12:23:45;;;;;;;14.55;4.65;;;6.20;99.90;;;;;;5045237;28;20041;-68
2023/02/02 12:26:27;;;;;;;12.85;3.08;;;6.20;99.90;;;;;;5023004;28;20375;-69
2023/02/02 12:29:13;;;;;;;5.93;2.83;;;6.30;99.90;;;;;;5051309;28;20061;-69
2023/02/02 12:32:27;;;;;;;12.25;3.40;;;6.30;99.90;;;;;;5064708;28;20388;-68
2023/02/02 12:35:07;;;;;;;13.82;3.85;;;6.30;99.90;;;;;;5019970;28;20056;-68
2023/02/02 12:37:56;;;;;;;8.82;3.58;;;6.40;99.90;;;;;;5046541;28;20073;-67
2023/02/02 12:40:48;;;;;;;12.73;3.72;;;6.40;99.90;;;;;;5048318;28;20041;-66
2023/02/02 12:43:15;;;;;;;11.73;3.50;;;6.30;99.90;;;;;;5044421;28;20040;-70
2023/02/02 12:46:39;;;;;;;10.95;3.45;;;6.40;99.90;;;;;;5046248;28;20070;-70
2023/02/02 12:49:24;;;;;;;11.07;3.90;;;6.40;99.90;;;;;;5008277;28;20366;-68
2023/02/02 12:52:18;;;;;;;8.18;3.17;;;6.40;99.90;;;;;;5005677;28;20417;-68
2023/02/02 12:55:29;;;;;;;9.85;3.05;;;6.30;99.90;;;;;;4991327;28;20157;-70
2023/02/02 12:58:18;;;;;;;9.80;3.22;;;6.40;99.90;;;;;;4974391;28;20042;-67
2023/02/02 13:01:01;;;;;;;12.27;4.28;;;6.40;99.90;;;;;;4972861;28;20050;-67
2023/02/02 13:03:59;;;;;;;10.98;3.78;;;6.40;99.90;;;;;;5007158;28;20584;-69
2023/02/02 13:06:53;;;;;;;10.35;3.55;;;6.40;99.90;;;;;;5004926;28;20519;-70
2023/02/02 13:09:33;;;;;;;15.70;3.80;;;6.50;99.90;;;;;;4990406;28;20038;-67
2023/02/02 13:12:09;;;;;;;10.85;2.90;;;6.40;99.90;;;;;;5014354;28;20049;-68
2023/02/02 13:14:48;;;;;;;7.45;3.47;;;6.40;99.90;;;;;;5007516;28;20129;-69
2023/02/02 13:17:27;;;;;;;10.63;3.20;;;6.50;99.90;;;;;;5006231;28;20042;-69
2023/02/02 13:20:03;;;;;;;10.25;3.60;;;6.60;99.90;;;;;;5030628;28;20045;-68
2023/02/02 13:22:43;;;;;;;9.30;3.20;;;6.60;99.90;;;;;;5030774;28;20073;-68
2023/02/02 13:25:47;;;;;;;6.28;2.90;;;6.60;99.90;;;;;;5044202;28;20555;-68
2023/02/02 13:28:37;;;;;;;15.30;4.03;;;6.50;99.90;;;;;;5027975;28;20041;-68
2023/02/02 13:31:10;;;;;;;10.93;4.05;;;6.50;99.90;;;;;;5046307;28;20052;-68
2023/02/02 13:33:39;;;;;;;9.07;2.92;;;6.50;99.90;;;;;;5039913;28;20038;-68